sensor_id;sensor_type;location;lat;lon;timestamp;P1;durP1;ratioP1;P2;durP2;ratioP2
43994;SDS011;51687;52.160;5.298;2023-04-25T00:02:14;9.75;;;3.75;;
43994;SDS011;51687;52.160;5.298;2023-04-25T00:04:41;16.52;;;4.60;;
43994;SDS011;51687;52.160;5.298;2023-04-25T00:07:08;10.18;;;3.70;;
43994;SDS011;51687;52.160;5.298;2023-04-25T00:09:35;13.93;;;4.63;;
43994;SDS011;51687;52.160;5.298;2023-04-25T00:12:02;11.85;;;4.60;;
43994;SDS011;51687;52.160;5.298;2023-04-25T00:14:29;24.88;;;4.55;;
43994;SDS011;51687;52.160;5.298;2023-04-25T00:16:56;14.95;;;4.63;;
43994;SDS011;51687;52.160;5.298;2023-04-25T00:19:24;15.10;;;4.47;;
43994;SDS011;51687;52.160;5.298;2023-04-25T00:21:50;18.23;;;4.70;;
43994;SDS011;51687;52.160;5.298;2023-04-25T00:24:17;14.30;;;5.43;;
43994;SDS011;51687;52.160;5.298;2023-04-25T00:26:44;17.27;;;4.45;;
43994;SDS011;51687;52.160;5.298;2023-04-25T00:29:11;18.23;;;4.47;;
43994;SDS011;51687;52.160;5.298;2023-04-25T00:31:37;20.50;;;4.85;;
43994;SDS011;51687;52.160;5.298;2023-04-25T00:34:05;16.90;;;4.60;;
43994;SDS011;51687;52.160;5.298;2023-04-25T00:36:32;19.60;;;4.55;;
43994;SDS011;51687;52.160;5.298;2023-04-25T00:38:59;18.52;;;4.53;;
43994;SDS011;51687;52.160;5.298;2023-04-25T00:41:26;16.92;;;4.97;;
43994;SDS011;51687;52.160;5.298;2023-04-25T00:43:53;19.58;;;5.18;;
43994;SDS011;51687;52.160;5.298;2023-04-25T00:48:48;13.98;;;5.35;;
43994;SDS011;51687;52.160;5.298;2023-04-25T00:51:21;18.65;;;4.70;;
43994;SDS011;51687;52.160;5.298;2023-04-25T00:53:49;14.55;;;4.22;;
43994;SDS011;51687;52.160;5.298;2023-04-25T00:56:17;16.13;;;4.32;;
43994;SDS011;51687;52.160;5.298;2023-04-25T00:58:44;15.27;;;4.43;;
43994;SDS011;51687;52.160;5.298;2023-04-25T01:01:11;13.50;;;5.13;;
43994;SDS011;51687;52.160;5.298;2023-04-25T01:03:39;11.02;;;4.30;;
43994;SDS011;51687;52.160;5.298;2023-04-25T01:06:08;12.30;;;4.03;;
43994;SDS011;51687;52.160;5.298;2023-04-25T01:08:37;10.23;;;3.95;;
43994;SDS011;51687;52.160;5.298;2023-04-25T01:11:05;13.52;;;4.57;;
43994;SDS011;51687;52.160;5.298;2023-04-25T01:13:32;13.77;;;6.28;;
43994;SDS011;51687;52.160;5.298;2023-04-25T01:16:00;15.73;;;5.50;;
43994;SDS011;51687;52.160;5.298;2023-04-25T01:18:28;11.40;;;4.38;;
43994;SDS011;51687;52.160;5.298;2023-04-25T01:20:54;12.50;;;4.40;;
43994;SDS011;51687;52.160;5.298;2023-04-25T01:23:22;9.85;;;4.50;;
43994;SDS011;51687;52.160;5.298;2023-04-25T01:25:49;14.52;;;4.97;;
43994;SDS011;51687;52.160;5.298;2023-04-25T01:28:17;13.73;;;4.50;;
43994;SDS011;51687;52.160;5.298;2023-04-25T01:30:44;8.30;;;3.55;;
43994;SDS011;51687;52.160;5.298;2023-04-25T01:33:12;12.50;;;3.77;;
43994;SDS011;51687;52.160;5.298;2023-04-25T01:35:40;11.52;;;3.60;;
43994;SDS011;51687;52.160;5.298;2023-04-25T01:38:08;9.00;;;3.45;;
43994;SDS011;51687;52.160;5.298;2023-04-25T01:40:36;17.58;;;4.03;;
43994;SDS011;51687;52.160;5.298;2023-04-25T01:43:04;14.43;;;4.30;;
43994;SDS011;51687;52.160;5.298;2023-04-25T01:45:31;10.18;;;3.83;;
43994;SDS011;51687;52.160;5.298;2023-04-25T01:47:59;16.48;;;4.55;;
43994;SDS011;51687;52.160;5.298;2023-04-25T01:50:26;12.13;;;3.85;;
43994;SDS011;51687;52.160;5.298;2023-04-25T01:52:53;11.45;;;4.45;;
43994;SDS011;51687;52.160;5.298;2023-04-25T01:55:20;10.60;;;3.53;;
43994;SDS011;51687;52.160;5.298;2023-04-25T01:57:47;14.20;;;3.92;;
43994;SDS011;51687;52.160;5.298;2023-04-25T02:00:14;12.35;;;4.00;;
43994;SDS011;51687;52.160;5.298;2023-04-25T02:02:40;12.88;;;4.20;;
43994;SDS011;51687;52.160;5.298;2023-04-25T02:05:07;11.18;;;4.18;;
43994;SDS011;51687;52.160;5.298;2023-04-25T02:07:34;10.68;;;3.88;;
43994;SDS011;51687;52.160;5.298;2023-04-25T02:10:01;11.60;;;3.92;;
43994;SDS011;51687;52.160;5.298;2023-04-25T02:12:28;10.63;;;3.40;;
43994;SDS011;51687;52.160;5.298;2023-04-25T02:14:55;14.85;;;3.97;;
43994;SDS011;51687;52.160;5.298;2023-04-25T02:17:22;14.88;;;3.72;;
43994;SDS011;51687;52.160;5.298;2023-04-25T02:19:48;10.95;;;3.83;;
43994;SDS011;51687;52.160;5.298;2023-04-25T02:22:16;10.13;;;3.33;;
43994;SDS011;51687;52.160;5.298;2023-04-25T02:24:43;14.73;;;3.60;;
43994;SDS011;51687;52.160;5.298;2023-04-25T02:27:10;13.65;;;3.60;;
43994;SDS011;51687;52.160;5.298;2023-04-25T02:29:37;15.50;;;4.38;;
43994;SDS011;51687;52.160;5.298;2023-04-25T02:32:05;8.85;;;3.70;;
43994;SDS011;51687;52.160;5.298;2023-04-25T02:34:32;13.18;;;3.78;;
43994;SDS011;51687;52.160;5.298;2023-04-25T02:36:59;11.75;;;4.03;;
43994;SDS011;51687;52.160;5.298;2023-04-25T02:39:26;10.60;;;3.65;;
43994;SDS011;51687;52.160;5.298;2023-04-25T02:41:53;13.23;;;3.30;;
43994;SDS011;51687;52.160;5.298;2023-04-25T02:44:20;13.23;;;4.40;;
43994;SDS011;51687;52.160;5.298;2023-04-25T02:46:47;9.10;;;4.78;;
43994;SDS011;51687;52.160;5.298;2023-04-25T02:49:15;11.25;;;4.15;;
43994;SDS011;51687;52.160;5.298;2023-04-25T02:51:42;16.52;;;4.07;;
43994;SDS011;51687;52.160;5.298;2023-04-25T02:54:09;14.27;;;4.75;;
43994;SDS011;51687;52.160;5.298;2023-04-25T02:56:36;13.25;;;4.22;;
43994;SDS011;51687;52.160;5.298;2023-04-25T02:59:03;15.80;;;4.32;;
43994;SDS011;51687;52.160;5.298;2023-04-25T03:01:29;19.02;;;4.88;;
43994;SDS011;51687;52.160;5.298;2023-04-25T03:03:56;15.80;;;4.30;;
43994;SDS011;51687;52.160;5.298;2023-04-25T03:06:23;12.57;;;3.97;;
43994;SDS011;51687;52.160;5.298;2023-04-25T03:08:50;11.30;;;4.80;;
43994;SDS011;51687;52.160;5.298;2023-04-25T03:11:16;11.13;;;4.18;;
43994;SDS011;51687;52.160;5.298;2023-04-25T03:13:43;13.38;;;4.72;;
43994;SDS011;51687;52.160;5.298;2023-04-25T03:16:10;12.73;;;4.53;;
43994;SDS011;51687;52.160;5.298;2023-04-25T03:18:38;15.32;;;4.50;;
43994;SDS011;51687;52.160;5.298;2023-04-25T03:21:05;10.43;;;4.53;;
43994;SDS011;51687;52.160;5.298;2023-04-25T03:23:32;14.07;;;4.78;;
43994;SDS011;51687;52.160;5.298;2023-04-25T03:25:59;12.68;;;3.95;;
43994;SDS011;51687;52.160;5.298;2023-04-25T03:28:27;9.55;;;4.35;;
43994;SDS011;51687;52.160;5.298;2023-04-25T03:30:54;10.02;;;4.03;;
43994;SDS011;51687;52.160;5.298;2023-04-25T03:33:21;13.77;;;5.32;;
43994;SDS011;51687;52.160;5.298;2023-04-25T03:35:48;10.98;;;4.15;;
43994;SDS011;51687;52.160;5.298;2023-04-25T03:38:16;15.45;;;4.22;;
43994;SDS011;51687;52.160;5.298;2023-04-25T03:40:43;12.63;;;4.72;;
43994;SDS011;51687;52.160;5.298;2023-04-25T03:43:12;15.02;;;4.60;;
43994;SDS011;51687;52.160;5.298;2023-04-25T03:45:39;12.60;;;4.88;;
43994;SDS011;51687;52.160;5.298;2023-04-25T03:48:09;11.05;;;4.43;;
43994;SDS011;51687;52.160;5.298;2023-04-25T03:50:36;17.55;;;4.07;;
43994;SDS011;51687;52.160;5.298;2023-04-25T03:53:04;15.88;;;4.25;;
43994;SDS011;51687;52.160;5.298;2023-04-25T03:55:31;22.45;;;4.95;;
43994;SDS011;51687;52.160;5.298;2023-04-25T03:57:58;15.35;;;3.80;;
43994;SDS011;51687;52.160;5.298;2023-04-25T04:00:25;11.52;;;3.58;;
43994;SDS011;51687;52.160;5.298;2023-04-25T04:02:52;11.55;;;3.45;;
43994;SDS011;51687;52.160;5.298;2023-04-25T04:05:20;9.98;;;3.80;;
43994;SDS011;51687;52.160;5.298;2023-04-25T04:07:47;10.75;;;3.75;;
43994;SDS011;51687;52.160;5.298;2023-04-25T04:10:14;11.95;;;3.33;;
43994;SDS011;51687;52.160;5.298;2023-04-25T04:12:41;8.18;;;4.20;;
43994;SDS011;51687;52.160;5.298;2023-04-25T04:15:09;11.90;;;4.18;;
43994;SDS011;51687;52.160;5.298;2023-04-25T04:17:39;11.45;;;3.63;;
43994;SDS011;51687;52.160;5.298;2023-04-25T04:20:07;13.35;;;4.22;;
43994;SDS011;51687;52.160;5.298;2023-04-25T04:22:36;12.43;;;3.83;;
43994;SDS011;51687;52.160;5.298;2023-04-25T04:25:03;9.55;;;3.47;;
43994;SDS011;51687;52.160;5.298;2023-04-25T04:27:32;15.93;;;3.92;;
43994;SDS011;51687;52.160;5.298;2023-04-25T04:29:59;11.40;;;3.38;;
43994;SDS011;51687;52.160;5.298;2023-04-25T04:32:26;13.05;;;3.63;;
43994;SDS011;51687;52.160;5.298;2023-04-25T04:34:53;8.75;;;3.22;;
43994;SDS011;51687;52.160;5.298;2023-04-25T04:37:21;8.40;;;2.83;;
43994;SDS011;51687;52.160;5.298;2023-04-25T04:39:48;8.65;;;2.67;;
43994;SDS011;51687;52.160;5.298;2023-04-25T04:42:17;7.25;;;3.10;;
43994;SDS011;51687;52.160;5.298;2023-04-25T04:44:44;10.75;;;2.75;;
43994;SDS011;51687;52.160;5.298;2023-04-25T04:47:11;12.07;;;3.13;;
43994;SDS011;51687;52.160;5.298;2023-04-25T04:49:40;9.85;;;3.58;;
43994;SDS011;51687;52.160;5.298;2023-04-25T04:52:06;7.00;;;2.97;;
43994;SDS011;51687;52.160;5.298;2023-04-25T04:54:33;8.70;;;2.80;;
43994;SDS011;51687;52.160;5.298;2023-04-25T04:57:01;10.73;;;2.50;;
43994;SDS011;51687;52.160;5.298;2023-04-25T04:59:28;12.27;;;2.67;;
43994;SDS011;51687;52.160;5.298;2023-04-25T05:01:55;8.23;;;2.25;;
43994;SDS011;51687;52.160;5.298;2023-04-25T05:04:22;9.10;;;2.75;;
43994;SDS011;51687;52.160;5.298;2023-04-25T05:06:49;9.40;;;3.22;;
43994;SDS011;51687;52.160;5.298;2023-04-25T05:09:16;8.50;;;2.33;;
43994;SDS011;51687;52.160;5.298;2023-04-25T05:11:45;7.80;;;2.60;;
43994;SDS011;51687;52.160;5.298;2023-04-25T05:14:12;15.95;;;3.70;;
43994;SDS011;51687;52.160;5.298;2023-04-25T05:16:39;12.65;;;2.88;;
43994;SDS011;51687;52.160;5.298;2023-04-25T05:19:06;11.40;;;2.65;;
43994;SDS011;51687;52.160;5.298;2023-04-25T05:21:34;10.23;;;2.60;;
43994;SDS011;51687;52.160;5.298;2023-04-25T05:24:01;12.07;;;2.97;;
43994;SDS011;51687;52.160;5.298;2023-04-25T05:26:28;18.92;;;2.63;;
43994;SDS011;51687;52.160;5.298;2023-04-25T05:28:57;9.15;;;2.85;;
43994;SDS011;51687;52.160;5.298;2023-04-25T05:31:24;10.82;;;2.40;;
43994;SDS011;51687;52.160;5.298;2023-04-25T05:33:51;10.85;;;2.78;;
43994;SDS011;51687;52.160;5.298;2023-04-25T05:36:19;11.82;;;2.70;;
43994;SDS011;51687;52.160;5.298;2023-04-25T05:38:46;13.02;;;2.63;;
43994;SDS011;51687;52.160;5.298;2023-04-25T05:41:13;7.03;;;2.72;;
43994;SDS011;51687;52.160;5.298;2023-04-25T05:43:40;9.23;;;3.17;;
43994;SDS011;51687;52.160;5.298;2023-04-25T05:46:13;6.30;;;2.20;;
43994;SDS011;51687;52.160;5.298;2023-04-25T05:48:40;9.05;;;2.67;;
43994;SDS011;51687;52.160;5.298;2023-04-25T05:51:07;7.40;;;2.50;;
43994;SDS011;51687;52.160;5.298;2023-04-25T05:53:35;7.38;;;2.80;;
43994;SDS011;51687;52.160;5.298;2023-04-25T05:56:02;5.93;;;2.03;;
43994;SDS011;51687;52.160;5.298;2023-04-25T05:58:29;8.93;;;3.45;;
43994;SDS011;51687;52.160;5.298;2023-04-25T06:00:57;6.13;;;2.78;;
43994;SDS011;51687;52.160;5.298;2023-04-25T06:03:25;6.60;;;2.38;;
43994;SDS011;51687;52.160;5.298;2023-04-25T06:05:53;8.73;;;2.30;;
43994;SDS011;51687;52.160;5.298;2023-04-25T06:08:20;7.80;;;2.55;;
43994;SDS011;51687;52.160;5.298;2023-04-25T06:10:47;11.18;;;2.50;;
43994;SDS011;51687;52.160;5.298;2023-04-25T06:13:14;8.80;;;2.35;;
43994;SDS011;51687;52.160;5.298;2023-04-25T06:15:42;9.07;;;1.90;;
43994;SDS011;51687;52.160;5.298;2023-04-25T06:18:09;9.38;;;2.38;;
43994;SDS011;51687;52.160;5.298;2023-04-25T06:20:36;5.65;;;2.05;;
43994;SDS011;51687;52.160;5.298;2023-04-25T06:23:03;5.68;;;1.70;;
43994;SDS011;51687;52.160;5.298;2023-04-25T06:25:31;8.20;;;2.40;;
43994;SDS011;51687;52.160;5.298;2023-04-25T06:27:58;9.73;;;2.17;;
43994;SDS011;51687;52.160;5.298;2023-04-25T06:30:25;9.80;;;2.72;;
43994;SDS011;51687;52.160;5.298;2023-04-25T06:32:53;8.77;;;2.60;;
43994;SDS011;51687;52.160;5.298;2023-04-25T06:35:20;8.80;;;2.78;;
43994;SDS011;51687;52.160;5.298;2023-04-25T06:37:47;6.50;;;2.10;;
43994;SDS011;51687;52.160;5.298;2023-04-25T06:40:15;7.95;;;2.75;;
43994;SDS011;51687;52.160;5.298;2023-04-25T06:42:43;8.93;;;2.42;;
43994;SDS011;51687;52.160;5.298;2023-04-25T06:45:10;11.55;;;3.05;;
43994;SDS011;51687;52.160;5.298;2023-04-25T06:47:37;8.15;;;2.20;;
43994;SDS011;51687;52.160;5.298;2023-04-25T06:50:05;14.27;;;2.30;;
43994;SDS011;51687;52.160;5.298;2023-04-25T06:52:32;8.10;;;1.58;;
43994;SDS011;51687;52.160;5.298;2023-04-25T06:54:59;7.82;;;1.83;;
43994;SDS011;51687;52.160;5.298;2023-04-25T06:57:27;10.02;;;2.17;;
43994;SDS011;51687;52.160;5.298;2023-04-25T06:59:54;6.43;;;1.73;;
43994;SDS011;51687;52.160;5.298;2023-04-25T07:02:21;10.23;;;2.10;;
43994;SDS011;51687;52.160;5.298;2023-04-25T07:04:48;14.73;;;1.90;;
43994;SDS011;51687;52.160;5.298;2023-04-25T07:07:16;7.93;;;1.75;;
43994;SDS011;51687;52.160;5.298;2023-04-25T07:09:43;4.90;;;1.80;;
43994;SDS011;51687;52.160;5.298;2023-04-25T07:12:10;7.53;;;2.28;;
43994;SDS011;51687;52.160;5.298;2023-04-25T07:14:37;7.30;;;2.15;;
43994;SDS011;51687;52.160;5.298;2023-04-25T07:17:05;8.65;;;2.28;;
43994;SDS011;51687;52.160;5.298;2023-04-25T07:19:33;5.43;;;2.08;;
43994;SDS011;51687;52.160;5.298;2023-04-25T07:22:00;5.65;;;1.65;;
43994;SDS011;51687;52.160;5.298;2023-04-25T07:24:28;12.38;;;2.25;;
43994;SDS011;51687;52.160;5.298;2023-04-25T07:26:55;11.40;;;2.25;;
43994;SDS011;51687;52.160;5.298;2023-04-25T07:29:22;9.18;;;1.70;;
43994;SDS011;51687;52.160;5.298;2023-04-25T07:31:49;7.53;;;1.80;;
43994;SDS011;51687;52.160;5.298;2023-04-25T07:34:17;9.25;;;2.10;;
43994;SDS011;51687;52.160;5.298;2023-04-25T07:36:44;9.32;;;1.95;;
43994;SDS011;51687;52.160;5.298;2023-04-25T07:39:11;8.95;;;1.73;;
43994;SDS011;51687;52.160;5.298;2023-04-25T07:41:38;8.68;;;1.75;;
43994;SDS011;51687;52.160;5.298;2023-04-25T07:44:06;8.25;;;1.50;;
43994;SDS011;51687;52.160;5.298;2023-04-25T07:46:33;9.20;;;1.88;;
43994;SDS011;51687;52.160;5.298;2023-04-25T07:49:00;6.88;;;1.63;;
43994;SDS011;51687;52.160;5.298;2023-04-25T07:51:27;6.60;;;1.67;;
43994;SDS011;51687;52.160;5.298;2023-04-25T07:53:54;8.38;;;1.90;;
43994;SDS011;51687;52.160;5.298;2023-04-25T07:56:21;8.10;;;1.92;;
43994;SDS011;51687;52.160;5.298;2023-04-25T07:58:49;11.57;;;1.88;;
43994;SDS011;51687;52.160;5.298;2023-04-25T08:01:16;10.45;;;2.67;;
43994;SDS011;51687;52.160;5.298;2023-04-25T08:03:45;9.07;;;2.65;;
43994;SDS011;51687;52.160;5.298;2023-04-25T08:06:12;6.28;;;1.50;;
43994;SDS011;51687;52.160;5.298;2023-04-25T08:08:40;11.48;;;2.25;;
43994;SDS011;51687;52.160;5.298;2023-04-25T08:11:07;10.40;;;2.08;;
43994;SDS011;51687;52.160;5.298;2023-04-25T08:13:34;7.72;;;1.73;;
43994;SDS011;51687;52.160;5.298;2023-04-25T08:16:01;8.38;;;1.38;;
43994;SDS011;51687;52.160;5.298;2023-04-25T08:18:28;4.20;;;1.00;;
43994;SDS011;51687;52.160;5.298;2023-04-25T08:20:56;6.60;;;1.42;;
43994;SDS011;51687;52.160;5.298;2023-04-25T08:23:24;5.55;;;1.63;;
43994;SDS011;51687;52.160;5.298;2023-04-25T08:25:51;5.20;;;1.20;;
43994;SDS011;51687;52.160;5.298;2023-04-25T08:28:18;4.65;;;1.33;;
43994;SDS011;51687;52.160;5.298;2023-04-25T08:30:45;4.30;;;1.45;;
43994;SDS011;51687;52.160;5.298;2023-04-25T08:33:12;3.25;;;1.13;;
43994;SDS011;51687;52.160;5.298;2023-04-25T08:35:40;7.75;;;1.40;;
43994;SDS011;51687;52.160;5.298;2023-04-25T08:38:07;7.60;;;1.60;;
43994;SDS011;51687;52.160;5.298;2023-04-25T08:40:35;4.05;;;1.23;;
43994;SDS011;51687;52.160;5.298;2023-04-25T08:43:04;7.63;;;1.52;;
43994;SDS011;51687;52.160;5.298;2023-04-25T08:45:40;7.32;;;1.80;;
43994;SDS011;51687;52.160;5.298;2023-04-25T08:48:11;9.13;;;1.67;;
43994;SDS011;51687;52.160;5.298;2023-04-25T08:50:49;8.05;;;1.80;;
43994;SDS011;51687;52.160;5.298;2023-04-25T08:53:17;9.05;;;1.75;;
43994;SDS011;51687;52.160;5.298;2023-04-25T08:55:48;4.65;;;1.40;;
43994;SDS011;51687;52.160;5.298;2023-04-25T08:58:16;14.55;;;1.92;;
43994;SDS011;51687;52.160;5.298;2023-04-25T09:00:46;11.18;;;1.65;;
43994;SDS011;51687;52.160;5.298;2023-04-25T09:03:14;6.40;;;1.30;;
43994;SDS011;51687;52.160;5.298;2023-04-25T09:05:42;7.28;;;1.40;;
43994;SDS011;51687;52.160;5.298;2023-04-25T09:08:12;8.73;;;1.98;;
43994;SDS011;51687;52.160;5.298;2023-04-25T09:10:39;8.70;;;1.25;;
43994;SDS011;51687;52.160;5.298;2023-04-25T09:13:10;6.30;;;1.52;;
43994;SDS011;51687;52.160;5.298;2023-04-25T09:15:48;4.60;;;1.13;;
43994;SDS011;51687;52.160;5.298;2023-04-25T09:18:23;5.20;;;1.48;;
43994;SDS011;51687;52.160;5.298;2023-04-25T09:20:58;5.40;;;1.70;;
43994;SDS011;51687;52.160;5.298;2023-04-25T09:23:46;5.55;;;1.30;;
43994;SDS011;51687;52.160;5.298;2023-04-25T09:26:15;5.72;;;1.30;;
43994;SDS011;51687;52.160;5.298;2023-04-25T09:28:43;6.88;;;1.05;;
43994;SDS011;51687;52.160;5.298;2023-04-25T09:31:12;6.20;;;1.83;;
43994;SDS011;51687;52.160;5.298;2023-04-25T09:33:40;9.23;;;1.25;;
43994;SDS011;51687;52.160;5.298;2023-04-25T09:36:09;7.97;;;1.45;;
43994;SDS011;51687;52.160;5.298;2023-04-25T09:38:42;8.57;;;1.50;;
43994;SDS011;51687;52.160;5.298;2023-04-25T09:41:10;8.20;;;1.75;;
43994;SDS011;51687;52.160;5.298;2023-04-25T09:43:37;4.85;;;1.30;;
43994;SDS011;51687;52.160;5.298;2023-04-25T09:46:08;8.30;;;1.35;;
43994;SDS011;51687;52.160;5.298;2023-04-25T09:48:37;6.18;;;1.40;;
43994;SDS011;51687;52.160;5.298;2023-04-25T09:53:41;5.65;;;1.63;;
43994;SDS011;51687;52.160;5.298;2023-04-25T09:56:10;5.63;;;1.30;;
43994;SDS011;51687;52.160;5.298;2023-04-25T09:58:38;7.68;;;1.40;;
43994;SDS011;51687;52.160;5.298;2023-04-25T10:01:06;3.33;;;1.30;;
43994;SDS011;51687;52.160;5.298;2023-04-25T10:03:35;5.70;;;1.50;;
43994;SDS011;51687;52.160;5.298;2023-04-25T10:08:34;12.70;;;5.80;;
43994;SDS011;51687;52.160;5.298;2023-04-25T10:11:03;5.28;;;2.22;;
43994;SDS011;51687;52.160;5.298;2023-04-25T10:13:31;7.25;;;1.92;;
43994;SDS011;51687;52.160;5.298;2023-04-25T10:15:58;6.03;;;1.05;;
43994;SDS011;51687;52.160;5.298;2023-04-25T10:18:27;4.78;;;1.23;;
43994;SDS011;51687;52.160;5.298;2023-04-25T10:20:55;5.43;;;1.40;;
43994;SDS011;51687;52.160;5.298;2023-04-25T10:23:23;6.00;;;1.38;;
43994;SDS011;51687;52.160;5.298;2023-04-25T10:25:51;6.10;;;1.10;;
43994;SDS011;51687;52.160;5.298;2023-04-25T10:28:19;5.10;;;1.30;;
43994;SDS011;51687;52.160;5.298;2023-04-25T10:31:03;4.78;;;1.20;;
43994;SDS011;51687;52.160;5.298;2023-04-25T10:36:13;5.05;;;1.05;;
43994;SDS011;51687;52.160;5.298;2023-04-25T10:38:44;5.85;;;1.27;;
43994;SDS011;51687;52.160;5.298;2023-04-25T10:41:13;3.13;;;1.25;;
43994;SDS011;51687;52.160;5.298;2023-04-25T10:43:41;5.03;;;1.30;;
43994;SDS011;51687;52.160;5.298;2023-04-25T10:48:46;3.53;;;1.08;;
43994;SDS011;51687;52.160;5.298;2023-04-25T10:51:20;4.10;;;1.25;;
43994;SDS011;51687;52.160;5.298;2023-04-25T10:56:36;3.13;;;0.88;;
43994;SDS011;51687;52.160;5.298;2023-04-25T10:59:06;3.25;;;1.10;;
43994;SDS011;51687;52.160;5.298;2023-04-25T11:01:37;8.60;;;1.10;;
43994;SDS011;51687;52.160;5.298;2023-04-25T11:07:00;5.72;;;1.60;;
43994;SDS011;51687;52.160;5.298;2023-04-25T11:09:34;4.90;;;1.48;;
43994;SDS011;51687;52.160;5.298;2023-04-25T11:12:04;9.20;;;1.42;;
43994;SDS011;51687;52.160;5.298;2023-04-25T11:14:31;4.40;;;1.13;;
43994;SDS011;51687;52.160;5.298;2023-04-25T11:16:58;5.50;;;1.13;;
43994;SDS011;51687;52.160;5.298;2023-04-25T11:19:27;3.97;;;1.40;;
43994;SDS011;51687;52.160;5.298;2023-04-25T11:21:55;5.65;;;1.90;;
43994;SDS011;51687;52.160;5.298;2023-04-25T11:24:29;4.95;;;1.70;;
43994;SDS011;51687;52.160;5.298;2023-04-25T11:27:00;4.85;;;1.50;;
43994;SDS011;51687;52.160;5.298;2023-04-25T11:29:30;7.57;;;2.25;;
43994;SDS011;51687;52.160;5.298;2023-04-25T11:31:59;5.57;;;1.65;;
43994;SDS011;51687;52.160;5.298;2023-04-25T11:34:28;4.25;;;1.77;;
43994;SDS011;51687;52.160;5.298;2023-04-25T11:37:00;5.07;;;1.27;;
43994;SDS011;51687;52.160;5.298;2023-04-25T11:39:28;4.75;;;1.08;;
43994;SDS011;51687;52.160;5.298;2023-04-25T11:41:55;5.40;;;1.10;;
43994;SDS011;51687;52.160;5.298;2023-04-25T11:44:22;2.67;;;0.98;;
43994;SDS011;51687;52.160;5.298;2023-04-25T11:46:49;3.25;;;1.15;;
43994;SDS011;51687;52.160;5.298;2023-04-25T11:49:16;4.53;;;1.20;;
43994;SDS011;51687;52.160;5.298;2023-04-25T11:51:47;5.72;;;1.00;;
43994;SDS011;51687;52.160;5.298;2023-04-25T11:54:15;6.30;;;1.50;;
43994;SDS011;51687;52.160;5.298;2023-04-25T11:56:42;5.65;;;1.63;;
43994;SDS011;51687;52.160;5.298;2023-04-25T11:59:10;5.05;;;1.35;;
43994;SDS011;51687;52.160;5.298;2023-04-25T12:01:39;3.15;;;1.00;;
43994;SDS011;51687;52.160;5.298;2023-04-25T12:04:15;5.00;;;1.30;;
43994;SDS011;51687;52.160;5.298;2023-04-25T12:06:42;3.13;;;1.30;;
43994;SDS011;51687;52.160;5.298;2023-04-25T12:09:13;6.57;;;1.10;;
43994;SDS011;51687;52.160;5.298;2023-04-25T12:11:42;6.55;;;1.33;;
43994;SDS011;51687;52.160;5.298;2023-04-25T12:14:20;4.30;;;1.17;;
43994;SDS011;51687;52.160;5.298;2023-04-25T12:16:55;4.13;;;1.75;;
43994;SDS011;51687;52.160;5.298;2023-04-25T12:19:24;4.93;;;1.23;;
43994;SDS011;51687;52.160;5.298;2023-04-25T12:21:52;3.37;;;1.27;;
43994;SDS011;51687;52.160;5.298;2023-04-25T12:24:22;4.10;;;1.20;;
43994;SDS011;51687;52.160;5.298;2023-04-25T12:27:01;5.78;;;1.27;;
43994;SDS011;51687;52.160;5.298;2023-04-25T12:29:30;3.85;;;1.17;;
43994;SDS011;51687;52.160;5.298;2023-04-25T12:32:15;3.55;;;1.13;;
43994;SDS011;51687;52.160;5.298;2023-04-25T12:34:43;2.42;;;1.17;;
43994;SDS011;51687;52.160;5.298;2023-04-25T12:37:09;3.13;;;0.90;;
43994;SDS011;51687;52.160;5.298;2023-04-25T12:39:36;5.45;;;1.15;;
43994;SDS011;51687;52.160;5.298;2023-04-25T12:42:03;5.55;;;1.23;;
43994;SDS011;51687;52.160;5.298;2023-04-25T12:44:34;4.18;;;0.95;;
43994;SDS011;51687;52.160;5.298;2023-04-25T12:47:01;4.40;;;1.00;;
43994;SDS011;51687;52.160;5.298;2023-04-25T12:49:29;3.88;;;1.52;;
43994;SDS011;51687;52.160;5.298;2023-04-25T12:51:56;4.65;;;1.02;;
43994;SDS011;51687;52.160;5.298;2023-04-25T12:54:23;3.90;;;1.10;;
43994;SDS011;51687;52.160;5.298;2023-04-25T12:56:50;4.55;;;1.02;;
43994;SDS011;51687;52.160;5.298;2023-04-25T12:59:17;5.22;;;0.90;;
43994;SDS011;51687;52.160;5.298;2023-04-25T13:01:45;5.32;;;1.13;;
43994;SDS011;51687;52.160;5.298;2023-04-25T13:04:13;3.88;;;0.95;;
43994;SDS011;51687;52.160;5.298;2023-04-25T13:06:39;2.58;;;1.15;;
43994;SDS011;51687;52.160;5.298;2023-04-25T13:09:06;5.97;;;0.93;;
43994;SDS011;51687;52.160;5.298;2023-04-25T13:11:34;6.13;;;1.30;;
43994;SDS011;51687;52.160;5.298;2023-04-25T13:14:01;3.97;;;0.88;;
43994;SDS011;51687;52.160;5.298;2023-04-25T13:16:29;3.20;;;0.70;;
43994;SDS011;51687;52.160;5.298;2023-04-25T13:18:56;2.45;;;0.90;;
43994;SDS011;51687;52.160;5.298;2023-04-25T13:21:23;3.03;;;0.75;;
43994;SDS011;51687;52.160;5.298;2023-04-25T13:23:50;2.65;;;0.95;;
43994;SDS011;51687;52.160;5.298;2023-04-25T13:26:18;3.05;;;1.00;;
43994;SDS011;51687;52.160;5.298;2023-04-25T13:28:45;4.22;;;1.13;;
43994;SDS011;51687;52.160;5.298;2023-04-25T13:31:12;4.88;;;1.05;;
43994;SDS011;51687;52.160;5.298;2023-04-25T13:33:39;4.10;;;0.85;;
43994;SDS011;51687;52.160;5.298;2023-04-25T13:36:07;5.25;;;1.20;;
43994;SDS011;51687;52.160;5.298;2023-04-25T13:38:34;2.65;;;0.80;;
43994;SDS011;51687;52.160;5.298;2023-04-25T13:41:02;4.80;;;1.88;;
43994;SDS011;51687;52.160;5.298;2023-04-25T13:43:29;4.10;;;1.48;;
43994;SDS011;51687;52.160;5.298;2023-04-25T13:45:56;3.08;;;1.48;;
43994;SDS011;51687;52.160;5.298;2023-04-25T13:48:23;4.07;;;1.30;;
43994;SDS011;51687;52.160;5.298;2023-04-25T13:50:51;9.77;;;1.85;;
43994;SDS011;51687;52.160;5.298;2023-04-25T13:53:24;5.35;;;1.35;;
43994;SDS011;51687;52.160;5.298;2023-04-25T13:55:53;4.45;;;1.30;;
43994;SDS011;51687;52.160;5.298;2023-04-25T13:58:21;4.10;;;1.10;;
43994;SDS011;51687;52.160;5.298;2023-04-25T14:00:48;7.40;;;1.73;;
43994;SDS011;51687;52.160;5.298;2023-04-25T14:03:15;6.82;;;1.17;;
43994;SDS011;51687;52.160;5.298;2023-04-25T14:05:42;3.47;;;1.10;;
43994;SDS011;51687;52.160;5.298;2023-04-25T14:08:09;4.93;;;1.23;;
43994;SDS011;51687;52.160;5.298;2023-04-25T14:10:37;3.90;;;1.40;;
43994;SDS011;51687;52.160;5.298;2023-04-25T14:13:04;4.38;;;1.50;;
43994;SDS011;51687;52.160;5.298;2023-04-25T14:15:34;3.20;;;1.00;;
43994;SDS011;51687;52.160;5.298;2023-04-25T14:18:01;5.68;;;1.20;;
43994;SDS011;51687;52.160;5.298;2023-04-25T14:20:29;7.20;;;1.42;;
43994;SDS011;51687;52.160;5.298;2023-04-25T14:22:56;4.32;;;1.27;;
43994;SDS011;51687;52.160;5.298;2023-04-25T14:25:24;4.63;;;1.02;;
43994;SDS011;51687;52.160;5.298;2023-04-25T14:27:51;4.22;;;1.23;;
43994;SDS011;51687;52.160;5.298;2023-04-25T14:30:19;3.10;;;1.30;;
43994;SDS011;51687;52.160;5.298;2023-04-25T14:32:47;2.97;;;1.10;;
43994;SDS011;51687;52.160;5.298;2023-04-25T14:35:15;4.40;;;1.02;;
43994;SDS011;51687;52.160;5.298;2023-04-25T14:37:42;3.70;;;0.95;;
43994;SDS011;51687;52.160;5.298;2023-04-25T14:40:10;6.13;;;0.80;;
43994;SDS011;51687;52.160;5.298;2023-04-25T14:42:39;4.00;;;1.00;;
43994;SDS011;51687;52.160;5.298;2023-04-25T14:45:06;3.33;;;1.10;;
43994;SDS011;51687;52.160;5.298;2023-04-25T14:47:37;2.97;;;1.15;;
43994;SDS011;51687;52.160;5.298;2023-04-25T14:50:05;6.72;;;1.17;;
43994;SDS011;51687;52.160;5.298;2023-04-25T14:52:33;4.20;;;1.50;;
43994;SDS011;51687;52.160;5.298;2023-04-25T14:55:00;4.32;;;1.10;;
43994;SDS011;51687;52.160;5.298;2023-04-25T14:57:31;3.53;;;1.20;;
43994;SDS011;51687;52.160;5.298;2023-04-25T14:59:59;4.10;;;1.05;;
43994;SDS011;51687;52.160;5.298;2023-04-25T15:02:27;5.90;;;1.35;;
43994;SDS011;51687;52.160;5.298;2023-04-25T15:04:54;3.33;;;1.02;;
43994;SDS011;51687;52.160;5.298;2023-04-25T15:07:22;5.30;;;0.97;;